This is the latest recevied weather packets stored in our database for station/object NW1E. If no packets are shown the sender has not sent any weather packets the latest 10 day(s).
| Time | Temp. | Humidity | Pressure | Rain* | Wind** | Luminosity | Snow |
|---|---|---|---|---|---|---|---|
| 1777041608 | 26.67° C | 60% | 1014.7 hPa | 0 mm | - | 730 W/m² | - |
| 1777040212 | 25.56° C | 64% | 1014.7 hPa | 0 mm | - | 663 W/m² | - |
| 1777037795 | 24.44° C | 67% | 1014.6 hPa | 0 mm | - | 255 W/m² | - |
| 1777037185 | 23.89° C | 69% | 1014.6 hPa | 0 mm | - | 492 W/m² | - |
| 1777036463 | 23.89° C | 69% | 1014.8 hPa | 0 mm | - | 271 W/m² | - |
| 1777033213 | 20.56° C | 82% | 1014.5 hPa | 0 mm | - | 85 W/m² | - |
| 1777029645 | 20° C | 83% | 1013.8 hPa | 0 mm | - | 18 W/m² | - |
| 1777029035 | 20° C | 82% | 1013.8 hPa | 0 mm | - | 9 W/m² | - |
| 1777026632 | 20° C | 82% | 1013.6 hPa | 0 mm | - | 0 W/m² | - |
| 1777026332 | 20° C | 82% | 1013.6 hPa | 0 mm | - | 0 W/m² | - |
| 1777026034 | 20° C | 82% | 1013.5 hPa | 0 mm | - | 0 W/m² | - |
| 1777025431 | 20° C | 82% | 1013.3 hPa | 0 mm | - | 0 W/m² | - |
| 1777023488 | 20° C | 81% | 1013.4 hPa | 0 mm | - | 0 W/m² | - |
| 1777023017 | 20° C | 81% | 1013.3 hPa | 0 mm | - | 0 W/m² | - |
| 1777020312 | 20° C | 82% | 1013.4 hPa | 0 mm | - | 0 W/m² | - |
| 1777018210 | 20° C | 83% | 1013.6 hPa | 0 mm | - | 0 W/m² | - |
| 1777014608 | 20.56° C | 84% | 1013.9 hPa | 0 mm | - | 0 W/m² | - |
| 1777014308 | 20.56° C | 83% | 1013.9 hPa | 0 mm | - | 0 W/m² | - |
| 1777013107 | 20.56° C | 84% | 1014.2 hPa | 0 mm | - | 0 W/m² | - |
| 1777012507 | 20.56° C | 84% | 1014.4 hPa | 0 mm | - | 0 W/m² | - |
| 1777011904 | 20.56° C | 85% | 1014.7 hPa | 0 mm | - | 0 W/m² | - |
| 1777011303 | 20.56° C | 86% | 1014.8 hPa | 0 mm | - | 0 W/m² | - |
| 1777010105 | 20.56° C | 88% | 1015.2 hPa | 0 mm | - | 0 W/m² | - |
| 1777006958 | 20.56° C | 88% | 1015.6 hPa | 0 mm | - | 0 W/m² | - |
* Rain latest hour (hover to see other rain measurements)
** Current wind speed in m/s (hover to see current wind gust speed)